sensor_id;sensor_type;location;lat;lon;timestamp;pressure;altitude;pressure_sealevel;temperature;humidity
58973;BME280;44750;52.040;7.472;2023-02-28T00:04:29;101762.31;;;0.55;100.00
58973;BME280;44750;52.040;7.472;2023-02-28T00:09:30;101763.44;;;0.49;100.00
58973;BME280;44750;52.040;7.472;2023-02-28T00:14:30;101773.09;;;0.52;100.00
58973;BME280;44750;52.040;7.472;2023-02-28T00:19:30;101760.09;;;0.44;100.00
58973;BME280;44750;52.040;7.472;2023-02-28T00:24:31;101778.47;;;0.50;100.00
58973;BME280;44750;52.040;7.472;2023-02-28T00:29:31;101786.34;;;0.54;100.00
58973;BME280;44750;52.040;7.472;2023-02-28T00:34:31;101772.34;;;0.48;100.00
58973;BME280;44750;52.040;7.472;2023-02-28T00:39:33;101746.75;;;0.44;100.00
58973;BME280;44750;52.040;7.472;2023-02-28T00:44:34;101764.91;;;0.57;100.00
58973;BME280;44750;52.040;7.472;2023-02-28T00:49:34;101779.66;;;0.65;100.00
58973;BME280;44750;52.040;7.472;2023-02-28T00:54:35;101768.72;;;0.72;100.00
58973;BME280;44750;52.040;7.472;2023-02-28T00:59:35;101763.34;;;0.73;100.00
58973;BME280;44750;52.040;7.472;2023-02-28T01:04:35;101768.72;;;0.72;100.00
58973;BME280;44750;52.040;7.472;2023-02-28T01:09:36;101755.41;;;0.72;100.00
58973;BME280;44750;52.040;7.472;2023-02-28T01:14:37;101759.34;;;0.63;100.00
58973;BME280;44750;52.040;7.472;2023-02-28T01:19:37;101757.72;;;0.59;100.00
58973;BME280;44750;52.040;7.472;2023-02-28T01:24:37;101747.19;;;0.56;100.00
58973;BME280;44750;52.040;7.472;2023-02-28T01:29:37;101757.66;;;0.60;100.00
58973;BME280;44750;52.040;7.472;2023-02-28T01:34:38;101763.00;;;0.60;100.00
58973;BME280;44750;52.040;7.472;2023-02-28T01:39:38;101747.00;;;0.60;100.00
58973;BME280;44750;52.040;7.472;2023-02-28T01:45:00;101745.34;;;0.58;100.00
58973;BME280;44750;52.040;7.472;2023-02-28T01:50:04;101742.66;;;0.58;100.00
58973;BME280;44750;52.040;7.472;2023-02-28T01:55:06;101718.16;;;0.49;100.00
58973;BME280;44750;52.040;7.472;2023-02-28T02:00:12;101724.53;;;0.45;100.00
58973;BME280;44750;52.040;7.472;2023-02-28T02:05:21;101708.97;;;0.35;100.00
58973;BME280;44750;52.040;7.472;2023-02-28T02:15:41;101699.88;;;0.18;100.00
58973;BME280;44750;52.040;7.472;2023-02-28T02:37:04;101712.56;;;0.33;100.00
58973;BME280;44750;52.040;7.472;2023-02-28T02:42:14;101723.03;;;0.38;100.00
58973;BME280;44750;52.040;7.472;2023-02-28T02:47:19;101711.81;;;0.30;100.00
58973;BME280;44750;52.040;7.472;2023-02-28T02:52:23;101695.41;;;0.19;100.00
58973;BME280;44750;52.040;7.472;2023-02-28T02:57:35;101697.66;;;0.07;100.00
58973;BME280;44750;52.040;7.472;2023-02-28T03:02:39;101708.53;;;0.01;100.00
58973;BME280;44750;52.040;7.472;2023-02-28T03:07:40;101707.03;;;-0.06;100.00
58973;BME280;44750;52.040;7.472;2023-02-28T03:12:48;101716.63;;;-0.02;100.00
58973;BME280;44750;52.040;7.472;2023-02-28T03:18:24;101703.47;;;-0.05;100.00
58973;BME280;44750;52.040;7.472;2023-02-28T03:23:39;101709.69;;;-0.06;100.00
58973;BME280;44750;52.040;7.472;2023-02-28T03:29:02;101707.16;;;-0.09;100.00
58973;BME280;44750;52.040;7.472;2023-02-28T03:34:15;101710.69;;;-0.09;100.00
58973;BME280;44750;52.040;7.472;2023-02-28T03:39:21;101701.38;;;-0.21;100.00
58973;BME280;44750;52.040;7.472;2023-02-28T03:44:32;101705.53;;;-0.13;100.00
58973;BME280;44750;52.040;7.472;2023-02-28T03:49:45;101714.19;;;-0.08;100.00
58973;BME280;44750;52.040;7.472;2023-02-28T03:54:54;101714.19;;;-0.08;100.00
58973;BME280;44750;52.040;7.472;2023-02-28T04:05:31;101689.91;;;-0.23;100.00
58973;BME280;44750;52.040;7.472;2023-02-28T04:10:32;101697.81;;;-0.20;100.00
58973;BME280;44750;52.040;7.472;2023-02-28T04:15:32;101693.53;;;-0.24;100.00
58973;BME280;44750;52.040;7.472;2023-02-28T04:20:32;101686.53;;;-0.26;100.00
58973;BME280;44750;52.040;7.472;2023-02-28T04:25:33;101686.69;;;-0.31;100.00
58973;BME280;44750;52.040;7.472;2023-02-28T04:30:33;101674.56;;;-0.38;100.00
58973;BME280;44750;52.040;7.472;2023-02-28T04:35:33;101681.63;;;-0.37;100.00
58973;BME280;44750;52.040;7.472;2023-02-28T04:40:35;101675.66;;;-0.44;100.00
58973;BME280;44750;52.040;7.472;2023-02-28T04:45:35;101673.22;;;-0.50;100.00
58973;BME280;44750;52.040;7.472;2023-02-28T04:50:35;101669.13;;;-0.59;100.00
58973;BME280;44750;52.040;7.472;2023-02-28T04:55:35;101676.38;;;-0.62;100.00
58973;BME280;44750;52.040;7.472;2023-02-28T05:00:39;101684.28;;;-0.61;100.00
58973;BME280;44750;52.040;7.472;2023-02-28T05:05:39;101677.41;;;-0.66;100.00
58973;BME280;44750;52.040;7.472;2023-02-28T05:10:42;101673.78;;;-0.64;100.00
58973;BME280;44750;52.040;7.472;2023-02-28T05:15:42;101677.56;;;-0.71;100.00
58973;BME280;44750;52.040;7.472;2023-02-28T05:20:42;101687.41;;;-0.73;100.00
58973;BME280;44750;52.040;7.472;2023-02-28T05:25:42;101695.25;;;-0.70;100.00
58973;BME280;44750;52.040;7.472;2023-02-28T05:30:43;101689.41;;;-0.80;100.00
58973;BME280;44750;52.040;7.472;2023-02-28T05:35:43;101678.34;;;-0.93;100.00
58973;BME280;44750;52.040;7.472;2023-02-28T05:40:43;101683.66;;;-0.93;100.00
58973;BME280;44750;52.040;7.472;2023-02-28T05:45:44;101653.53;;;-1.17;100.00
58973;BME280;44750;52.040;7.472;2023-02-28T05:50:44;101714.25;;;-0.81;100.00
58973;BME280;44750;52.040;7.472;2023-02-28T05:55:44;101709.84;;;-0.82;100.00
58973;BME280;44750;52.040;7.472;2023-02-28T06:00:44;101705.69;;;-0.89;100.00
58973;BME280;44750;52.040;7.472;2023-02-28T06:05:44;101706.56;;;-0.89;100.00
58973;BME280;44750;52.040;7.472;2023-02-28T06:10:45;101722.38;;;-0.86;100.00
58973;BME280;44750;52.040;7.472;2023-02-28T06:15:45;101717.31;;;-0.92;100.00
58973;BME280;44750;52.040;7.472;2023-02-28T06:20:53;101720.75;;;-0.90;100.00
58973;BME280;44750;52.040;7.472;2023-02-28T06:25:53;101704.22;;;-0.98;100.00
58973;BME280;44750;52.040;7.472;2023-02-28T06:30:53;101713.69;;;-0.91;100.00
58973;BME280;44750;52.040;7.472;2023-02-28T06:35:54;101705.38;;;-1.05;100.00
58973;BME280;44750;52.040;7.472;2023-02-28T06:40:55;101715.63;;;-0.94;100.00
58973;BME280;44750;52.040;7.472;2023-02-28T06:45:58;101725.34;;;-0.93;100.00
58973;BME280;44750;52.040;7.472;2023-02-28T06:51:08;101735.84;;;-0.90;100.00
58973;BME280;44750;52.040;7.472;2023-02-28T06:56:13;101739.22;;;-0.85;100.00
58973;BME280;44750;52.040;7.472;2023-02-28T07:01:14;101751.41;;;-0.79;100.00
58973;BME280;44750;52.040;7.472;2023-02-28T07:06:15;101742.91;;;-0.89;100.00
58973;BME280;44750;52.040;7.472;2023-02-28T07:11:15;101753.16;;;-0.78;100.00
58973;BME280;44750;52.040;7.472;2023-02-28T07:16:16;101757.44;;;-0.74;100.00
58973;BME280;44750;52.040;7.472;2023-02-28T07:21:17;101755.25;;;-0.63;100.00
58973;BME280;44750;52.040;7.472;2023-02-28T07:26:18;101747.22;;;-0.61;100.00
58973;BME280;44750;52.040;7.472;2023-02-28T07:31:19;101765.94;;;-0.39;100.00
58973;BME280;44750;52.040;7.472;2023-02-28T07:36:19;101774.63;;;-0.34;100.00
58973;BME280;44750;52.040;7.472;2023-02-28T07:41:21;101782.78;;;-0.15;100.00
58973;BME280;44750;52.040;7.472;2023-02-28T07:46:22;101798.00;;;0.05;100.00
58973;BME280;44750;52.040;7.472;2023-02-28T07:51:22;101790.34;;;0.20;100.00
58973;BME280;44750;52.040;7.472;2023-02-28T07:56:22;101793.41;;;0.32;100.00
58973;BME280;44750;52.040;7.472;2023-02-28T08:01:23;101809.28;;;0.58;100.00
58973;BME280;44750;52.040;7.472;2023-02-28T08:06:24;101825.63;;;0.93;100.00
58973;BME280;44750;52.040;7.472;2023-02-28T08:11:25;101819.53;;;1.11;100.00
58973;BME280;44750;52.040;7.472;2023-02-28T08:16:25;101821.16;;;1.36;100.00
58973;BME280;44750;52.040;7.472;2023-02-28T08:21:25;101826.75;;;1.50;100.00
58973;BME280;44750;52.040;7.472;2023-02-28T08:26:26;101800.06;;;1.50;100.00
58973;BME280;44750;52.040;7.472;2023-02-28T08:31:26;101823.50;;;1.83;100.00
58973;BME280;44750;52.040;7.472;2023-02-28T08:36:26;101806.84;;;1.78;100.00
58973;BME280;44750;52.040;7.472;2023-02-28T08:41:26;101834.03;;;2.07;100.00
58973;BME280;44750;52.040;7.472;2023-02-28T08:46:27;101843.13;;;2.41;100.00
58973;BME280;44750;52.040;7.472;2023-02-28T08:51:28;101828.75;;;2.63;100.00
58973;BME280;44750;52.040;7.472;2023-02-28T08:56:28;101842.72;;;2.87;100.00
58973;BME280;44750;52.040;7.472;2023-02-28T09:01:30;101812.38;;;2.88;100.00
58973;BME280;44750;52.040;7.472;2023-02-28T09:06:31;101790.97;;;2.88;100.00
58973;BME280;44750;52.040;7.472;2023-02-28T09:11:32;101815.28;;;3.18;100.00
58973;BME280;44750;52.040;7.472;2023-02-28T09:16:34;101763.13;;;2.92;100.00
58973;BME280;44750;52.040;7.472;2023-02-28T09:21:35;101797.44;;;3.19;100.00
58973;BME280;44750;52.040;7.472;2023-02-28T09:26:37;101782.41;;;3.34;100.00
58973;BME280;44750;52.040;7.472;2023-02-28T09:31:37;101791.84;;;3.59;100.00
58973;BME280;44750;52.040;7.472;2023-02-28T09:36:37;101797.16;;;3.76;100.00
58973;BME280;44750;52.040;7.472;2023-02-28T09:41:41;101758.78;;;3.76;100.00
58973;BME280;44750;52.040;7.472;2023-02-28T09:46:45;101702.38;;;3.79;96.72
58973;BME280;44750;52.040;7.472;2023-02-28T09:51:52;101689.63;;;4.00;93.81
58973;BME280;44750;52.040;7.472;2023-02-28T09:57:00;101694.50;;;4.24;90.15
58973;BME280;44750;52.040;7.472;2023-02-28T10:13:35;101488.75;;;4.43;74.86
58973;BME280;44750;52.040;7.472;2023-02-28T10:18:58;101350.63;;;4.38;70.46
58973;BME280;44750;52.040;7.472;2023-02-28T10:24:51;101374.44;;;4.57;70.23
58973;BME280;44750;52.040;7.472;2023-02-28T10:29:25;101304.81;;;4.55;69.28
58973;BME280;44750;52.040;7.472;2023-02-28T10:34:25;101384.94;;;4.74;69.44
58973;BME280;44750;52.040;7.472;2023-02-28T10:39:41;101251.72;;;4.75;67.19
58973;BME280;44750;52.040;7.472;2023-02-28T10:44:41;101176.50;;;4.76;66.50
58973;BME280;44750;52.040;7.472;2023-02-28T10:49:47;101286.13;;;5.08;66.71
58973;BME280;44750;52.040;7.472;2023-02-28T10:54:48;101137.88;;;4.92;66.06
58973;BME280;44750;52.040;7.472;2023-02-28T10:59:52;101095.59;;;4.95;65.84
58973;BME280;44750;52.040;7.472;2023-02-28T11:10:30;101018.88;;;5.06;64.89
58973;BME280;44750;52.040;7.472;2023-02-28T11:15:33;100911.16;;;4.99;64.19
58973;BME280;44750;52.040;7.472;2023-02-28T11:20:34;100769.75;;;4.88;62.91
58973;BME280;44750;52.040;7.472;2023-02-28T11:25:37;100654.31;;;4.90;61.79
58973;BME280;44750;52.040;7.472;2023-02-28T11:30:40;100698.81;;;4.92;62.32
58973;BME280;44750;52.040;7.472;2023-02-28T11:35:40;100538.72;;;4.81;61.26
58973;BME280;44750;52.040;7.472;2023-02-28T12:02:05;100632.41;;;5.18;62.95
58973;BME280;44750;52.040;7.472;2023-02-28T12:07:17;100535.44;;;5.12;62.85
58973;BME280;44750;52.040;7.472;2023-02-28T12:28:27;100415.56;;;5.12;63.27
58973;BME280;44750;52.040;7.472;2023-02-28T12:33:36;100391.41;;;5.12;63.67
58973;BME280;44750;52.040;7.472;2023-02-28T12:38:45;100501.75;;;5.30;64.17
58973;BME280;44750;52.040;7.472;2023-02-28T12:43:53;100505.78;;;5.36;64.83
58973;BME280;44750;52.040;7.472;2023-02-28T12:48:56;100546.28;;;5.44;65.59
58973;BME280;44750;52.040;7.472;2023-02-28T12:54:17;100403.09;;;5.23;65.54
58973;BME280;44750;52.040;7.472;2023-02-28T12:59:27;100561.41;;;5.45;66.59
58973;BME280;44750;52.040;7.472;2023-02-28T13:05:10;100526.25;;;5.48;66.47
58973;BME280;44750;52.040;7.472;2023-02-28T13:10:14;100466.44;;;5.58;66.08
58973;BME280;44750;52.040;7.472;2023-02-28T13:15:22;100442.25;;;5.58;66.33
58973;BME280;44750;52.040;7.472;2023-02-28T13:20:26;100346.50;;;5.47;66.51
58973;BME280;44750;52.040;7.472;2023-02-28T13:46:28;100484.69;;;5.75;67.81
58973;BME280;44750;52.040;7.472;2023-02-28T13:51:47;100329.81;;;5.43;68.69
58973;BME280;44750;52.040;7.472;2023-02-28T13:56:57;100412.38;;;5.51;69.03
58973;BME280;44750;52.040;7.472;2023-02-28T14:07:26;100459.25;;;5.79;68.88
58973;BME280;44750;52.040;7.472;2023-02-28T14:18:18;100325.75;;;5.70;68.85
58973;BME280;44750;52.040;7.472;2023-02-28T14:23:42;100386.47;;;5.82;69.18
58973;BME280;44750;52.040;7.472;2023-02-28T14:39:46;100491.75;;;5.76;71.87
58973;BME280;44750;52.040;7.472;2023-02-28T14:44:56;100568.69;;;5.77;72.29
58973;BME280;44750;52.040;7.472;2023-02-28T14:49:57;100620.44;;;5.79;73.55
58973;BME280;44750;52.040;7.472;2023-02-28T14:55:12;100447.66;;;5.46;74.11
58973;BME280;44750;52.040;7.472;2023-02-28T15:00:25;100633.63;;;5.60;74.84
58973;BME280;44750;52.040;7.472;2023-02-28T15:10:27;100597.53;;;5.30;76.72
58973;BME280;44750;52.040;7.472;2023-02-28T15:20:35;100829.56;;;5.26;79.36
58973;BME280;44750;52.040;7.472;2023-02-28T15:25:40;100832.56;;;5.21;79.33
58973;BME280;44750;52.040;7.472;2023-02-28T15:30:51;100822.66;;;5.10;79.70
58973;BME280;44750;52.040;7.472;2023-02-28T15:36:10;100890.03;;;5.18;80.73
58973;BME280;44750;52.040;7.472;2023-02-28T15:41:23;100921.19;;;5.08;82.27
58973;BME280;44750;52.040;7.472;2023-02-28T15:46:24;100891.66;;;4.84;83.62
58973;BME280;44750;52.040;7.472;2023-02-28T15:51:32;101024.34;;;4.91;84.41
58973;BME280;44750;52.040;7.472;2023-02-28T15:56:44;101044.44;;;4.85;85.01
58973;BME280;44750;52.040;7.472;2023-02-28T16:01:45;101035.44;;;4.87;84.92
58973;BME280;44750;52.040;7.472;2023-02-28T16:06:47;101006.88;;;4.85;84.99
58973;BME280;44750;52.040;7.472;2023-02-28T16:12:01;101043.25;;;4.77;86.32
58973;BME280;44750;52.040;7.472;2023-02-28T16:17:05;101128.78;;;4.81;87.42
58973;BME280;44750;52.040;7.472;2023-02-28T16:22:05;101175.44;;;4.79;88.01
58973;BME280;44750;52.040;7.472;2023-02-28T16:27:06;101115.44;;;4.67;88.68
58973;BME280;44750;52.040;7.472;2023-02-28T16:32:06;101131.94;;;4.61;89.11
58973;BME280;44750;52.040;7.472;2023-02-28T16:37:15;101177.63;;;4.59;90.04
58973;BME280;44750;52.040;7.472;2023-02-28T16:42:23;101159.19;;;4.55;89.66
58973;BME280;44750;52.040;7.472;2023-02-28T16:47:24;101176.13;;;4.55;89.93
58973;BME280;44750;52.040;7.472;2023-02-28T16:52:25;101115.19;;;4.44;90.13
58973;BME280;44750;52.040;7.472;2023-02-28T16:57:25;101130.81;;;4.38;90.68
58973;BME280;44750;52.040;7.472;2023-02-28T17:02:25;101132.88;;;4.19;91.07
58973;BME280;44750;52.040;7.472;2023-02-28T17:07:25;101197.63;;;4.13;92.60
58973;BME280;44750;52.040;7.472;2023-02-28T17:12:26;101301.53;;;4.08;94.60
58973;BME280;44750;52.040;7.472;2023-02-28T17:17:26;101329.84;;;3.83;95.87
58973;BME280;44750;52.040;7.472;2023-02-28T17:22:26;101337.69;;;3.72;97.18
58973;BME280;44750;52.040;7.472;2023-02-28T17:27:26;101426.09;;;3.87;97.75
58973;BME280;44750;52.040;7.472;2023-02-28T17:32:26;101413.75;;;3.84;98.13
58973;BME280;44750;52.040;7.472;2023-02-28T17:37:27;101419.25;;;3.81;98.67
58973;BME280;44750;52.040;7.472;2023-02-28T17:42:28;101372.34;;;3.59;99.57
58973;BME280;44750;52.040;7.472;2023-02-28T17:47:28;101382.84;;;3.48;100.00
58973;BME280;44750;52.040;7.472;2023-02-28T17:52:29;101440.34;;;3.41;100.00
58973;BME280;44750;52.040;7.472;2023-02-28T17:57:29;101417.25;;;3.24;100.00
58973;BME280;44750;52.040;7.472;2023-02-28T18:02:29;101452.81;;;3.10;100.00
58973;BME280;44750;52.040;7.472;2023-02-28T18:07:30;101550.78;;;3.12;100.00
58973;BME280;44750;52.040;7.472;2023-02-28T18:12:30;101572.25;;;3.11;100.00
58973;BME280;44750;52.040;7.472;2023-02-28T18:17:30;101560.06;;;3.05;100.00
58973;BME280;44750;52.040;7.472;2023-02-28T18:22:30;101564.81;;;3.00;100.00
58973;BME280;44750;52.040;7.472;2023-02-28T18:27:31;101557.31;;;2.73;100.00
58973;BME280;44750;52.040;7.472;2023-02-28T18:32:31;101616.94;;;2.75;100.00
58973;BME280;44750;52.040;7.472;2023-02-28T18:37:31;101647.81;;;2.81;100.00
58973;BME280;44750;52.040;7.472;2023-02-28T18:42:31;101637.28;;;2.78;100.00
58973;BME280;44750;52.040;7.472;2023-02-28T18:47:33;101641.78;;;2.77;100.00
58973;BME280;44750;52.040;7.472;2023-02-28T18:52:33;101659.41;;;2.81;100.00
58973;BME280;44750;52.040;7.472;2023-02-28T18:57:34;101633.75;;;2.77;100.00
58973;BME280;44750;52.040;7.472;2023-02-28T19:02:35;101613.06;;;2.63;100.00
58973;BME280;44750;52.040;7.472;2023-02-28T19:07:36;101595.41;;;2.43;100.00
58973;BME280;44750;52.040;7.472;2023-02-28T19:12:37;101633.66;;;2.26;100.00
58973;BME280;44750;52.040;7.472;2023-02-28T19:17:37;101691.28;;;2.32;100.00
58973;BME280;44750;52.040;7.472;2023-02-28T19:22:38;101711.41;;;2.39;100.00
58973;BME280;44750;52.040;7.472;2023-02-28T19:27:38;101703.22;;;2.42;100.00
58973;BME280;44750;52.040;7.472;2023-02-28T19:32:38;101714.94;;;2.40;100.00
58973;BME280;44750;52.040;7.472;2023-02-28T19:37:39;101675.47;;;2.27;100.00
58973;BME280;44750;52.040;7.472;2023-02-28T19:42:39;101688.81;;;2.27;100.00
58973;BME280;44750;52.040;7.472;2023-02-28T19:47:43;101682.19;;;2.17;100.00
58973;BME280;44750;52.040;7.472;2023-02-28T19:52:43;101679.44;;;2.18;100.00
58973;BME280;44750;52.040;7.472;2023-02-28T19:57:44;101697.13;;;2.21;100.00
58973;BME280;44750;52.040;7.472;2023-02-28T20:02:44;101682.44;;;2.12;100.00
58973;BME280;44750;52.040;7.472;2023-02-28T20:07:44;101673.94;;;2.04;100.00
58973;BME280;44750;52.040;7.472;2023-02-28T20:12:44;101683.03;;;2.00;100.00
58973;BME280;44750;52.040;7.472;2023-02-28T20:17:45;101703.31;;;2.04;100.00
58973;BME280;44750;52.040;7.472;2023-02-28T20:22:45;101679.72;;;1.95;100.00
58973;BME280;44750;52.040;7.472;2023-02-28T20:27:45;101675.75;;;1.84;100.00
58973;BME280;44750;52.040;7.472;2023-02-28T20:32:46;101690.03;;;1.83;100.00
58973;BME280;44750;52.040;7.472;2023-02-28T20:37:46;101699.94;;;1.81;100.00
58973;BME280;44750;52.040;7.472;2023-02-28T20:42:46;101697.53;;;1.75;100.00
58973;BME280;44750;52.040;7.472;2023-02-28T20:47:47;101678.47;;;1.64;100.00
58973;BME280;44750;52.040;7.472;2023-02-28T20:52:47;101699.19;;;1.59;100.00
58973;BME280;44750;52.040;7.472;2023-02-28T20:57:47;101704.00;;;1.50;100.00
58973;BME280;44750;52.040;7.472;2023-02-28T21:02:47;101714.97;;;1.44;100.00
58973;BME280;44750;52.040;7.472;2023-02-28T21:07:47;101718.72;;;1.40;100.00
58973;BME280;44750;52.040;7.472;2023-02-28T21:12:49;101722.97;;;1.24;100.00
58973;BME280;44750;52.040;7.472;2023-02-28T21:17:49;101760.81;;;1.33;100.00
58973;BME280;44750;52.040;7.472;2023-02-28T21:22:50;101758.22;;;1.32;100.00
58973;BME280;44750;52.040;7.472;2023-02-28T21:27:50;101692.31;;;0.93;100.00
58973;BME280;44750;52.040;7.472;2023-02-28T21:32:50;101726.50;;;1.04;100.00
58973;BME280;44750;52.040;7.472;2023-02-28T21:37:51;101737.91;;;0.87;100.00
58973;BME280;44750;52.040;7.472;2023-02-28T21:42:51;101756.84;;;0.80;100.00
58973;BME280;44750;52.040;7.472;2023-02-28T21:47:51;101788.97;;;0.98;100.00
58973;BME280;44750;52.040;7.472;2023-02-28T21:52:51;101789.66;;;1.03;100.00
58973;BME280;44750;52.040;7.472;2023-02-28T21:57:51;101778.06;;;1.04;100.00
58973;BME280;44750;52.040;7.472;2023-02-28T22:02:52;101757.91;;;0.97;100.00
58973;BME280;44750;52.040;7.472;2023-02-28T22:07:52;101758.44;;;1.05;100.00
58973;BME280;44750;52.040;7.472;2023-02-28T22:12:52;101714.03;;;0.83;100.00
58973;BME280;44750;52.040;7.472;2023-02-28T22:17:52;101727.38;;;0.83;100.00
58973;BME280;44750;52.040;7.472;2023-02-28T22:22:53;101726.16;;;0.70;100.00
58973;BME280;44750;52.040;7.472;2023-02-28T22:27:54;101730.94;;;0.62;100.00
58973;BME280;44750;52.040;7.472;2023-02-28T22:32:54;101738.81;;;0.65;100.00
58973;BME280;44750;52.040;7.472;2023-02-28T22:37:54;101722.13;;;0.60;100.00
58973;BME280;44750;52.040;7.472;2023-02-28T22:42:54;101764.41;;;0.69;100.00
58973;BME280;44750;52.040;7.472;2023-02-28T22:47:55;101764.31;;;0.71;100.00
58973;BME280;44750;52.040;7.472;2023-02-28T22:52:55;101734.69;;;0.58;100.00
58973;BME280;44750;52.040;7.472;2023-02-28T22:57:55;101737.03;;;0.43;100.00
58973;BME280;44750;52.040;7.472;2023-02-28T23:02:56;101765.22;;;0.49;100.00
58973;BME280;44750;52.040;7.472;2023-02-28T23:07:56;101771.47;;;0.48;100.00
58973;BME280;44750;52.040;7.472;2023-02-28T23:12:56;101775.81;;;0.50;100.00
58973;BME280;44750;52.040;7.472;2023-02-28T23:17:56;101752.53;;;0.33;100.00
58973;BME280;44750;52.040;7.472;2023-02-28T23:22:57;101758.94;;;0.28;100.00
58973;BME280;44750;52.040;7.472;2023-02-28T23:27:57;101776.66;;;0.29;100.00
58973;BME280;44750;52.040;7.472;2023-02-28T23:32:57;101767.28;;;0.19;100.00
58973;BME280;44750;52.040;7.472;2023-02-28T23:37:57;101751.19;;;-0.01;100.00
58973;BME280;44750;52.040;7.472;2023-02-28T23:42:58;101752.41;;;-0.09;100.00
58973;BME280;44750;52.040;7.472;2023-02-28T23:47:58;101769.38;;;-0.12;100.00
58973;BME280;44750;52.040;7.472;2023-02-28T23:52:58;101770.91;;;-0.06;100.00
58973;BME280;44750;52.040;7.472;2023-02-28T23:57:58;101768.13;;;-0.03;100.00
